createdAt,value
2023-04-16T00:00:28.445Z,11.68
2023-04-16T00:02:55.623Z,8.45
2023-04-16T00:05:23.028Z,13.98
2023-04-16T00:07:52.224Z,6.38
2023-04-16T00:10:19.641Z,7.35
2023-04-16T00:12:46.674Z,17.80
2023-04-16T00:15:13.732Z,10.57
2023-04-16T00:17:40.920Z,13.95
2023-04-16T00:20:09.174Z,22.75
2023-04-16T00:22:36.431Z,13.73
2023-04-16T00:25:03.660Z,17.50
2023-04-16T00:27:30.804Z,13.55
2023-04-16T00:29:57.867Z,12.38
2023-04-16T00:32:25.056Z,21.42
2023-04-16T00:34:52.697Z,15.77
2023-04-16T00:37:19.877Z,17.88
2023-04-16T00:39:46.982Z,15.32
2023-04-16T00:42:14.088Z,13.80
2023-04-16T00:44:41.144Z,20.83
2023-04-16T00:47:08.549Z,15.30
2023-04-16T00:49:36.259Z,16.85
2023-04-16T00:52:03.403Z,11.82
2023-04-16T00:54:31.804Z,24.67
2023-04-16T00:56:59.648Z,14.48
2023-04-16T00:59:27.154Z,20.55
2023-04-16T01:01:55.499Z,15.10
2023-04-16T01:04:23.217Z,22.48
2023-04-16T01:06:51.329Z,19.08
2023-04-16T01:09:18.511Z,12.60
2023-04-16T01:11:45.811Z,20.58
2023-04-16T01:14:12.908Z,15.80
2023-04-16T01:16:40.004Z,13.82
2023-04-16T01:19:07.403Z,17.77
2023-04-16T01:21:34.615Z,12.65
2023-04-16T01:24:05.056Z,18.33
2023-04-16T01:26:32.205Z,20.50
2023-04-16T01:29:00.341Z,29.38
2023-04-16T01:31:27.558Z,23.80
2023-04-16T01:33:54.657Z,14.07
2023-04-16T01:36:22.909Z,18.63
2023-04-16T01:38:50.120Z,16.05
2023-04-16T01:41:17.154Z,21.90
2023-04-16T01:43:44.294Z,16.92
2023-04-16T01:46:15.166Z,17.15
2023-04-16T01:48:42.905Z,20.83
2023-04-16T01:51:10.158Z,20.40
2023-04-16T01:53:37.410Z,11.40
2023-04-16T01:56:04.965Z,14.52
2023-04-16T01:58:32.582Z,18.50
2023-04-16T02:00:59.800Z,17.42
2023-04-16T02:03:27.124Z,31.27
2023-04-16T02:05:54.742Z,20.35
2023-04-16T02:08:22.656Z,19.88
2023-04-16T02:10:50.602Z,25.05
2023-04-16T02:13:17.697Z,16.05
2023-04-16T02:15:48.201Z,25.55
2023-04-16T02:18:15.478Z,18.35
2023-04-16T02:20:47.106Z,17.08
2023-04-16T02:23:16.743Z,16.55
2023-04-16T02:25:45.869Z,18.27
2023-04-16T02:28:15.613Z,22.23
2023-04-16T02:30:43.460Z,26.63
2023-04-16T02:33:12.103Z,21.90
2023-04-16T02:35:40.039Z,25.02
2023-04-16T02:38:07.651Z,26.83
2023-04-16T02:40:35.054Z,32.08
2023-04-16T02:43:02.228Z,24.05
2023-04-16T02:45:31.501Z,22.52
2023-04-16T02:47:58.753Z,25.02
2023-04-16T02:50:25.993Z,25.00
2023-04-16T02:52:53.141Z,28.10
2023-04-16T02:55:20.427Z,31.17
2023-04-16T02:57:47.802Z,29.52
2023-04-16T03:00:15.174Z,27.58
2023-04-16T03:02:42.691Z,22.77
2023-04-16T03:05:10.485Z,30.67
2023-04-16T03:07:39.187Z,27.80
2023-04-16T03:10:07.470Z,34.95
2023-04-16T03:12:34.993Z,27.08
2023-04-16T03:15:02.426Z,31.45
2023-04-16T03:17:29.730Z,29.23
2023-04-16T03:19:57.012Z,23.83
2023-04-16T03:22:24.088Z,24.52
2023-04-16T03:24:51.517Z,33.00
2023-04-16T03:27:18.619Z,25.60
2023-04-16T03:29:45.768Z,22.35
2023-04-16T03:32:12.816Z,16.27
2023-04-16T03:34:39.912Z,24.15
2023-04-16T03:37:07.054Z,24.63
2023-04-16T03:39:34.646Z,21.83
2023-04-16T03:42:02.330Z,18.48
2023-04-16T03:44:29.871Z,23.88
2023-04-16T03:46:57.023Z,26.60
2023-04-16T03:49:24.126Z,21.60
2023-04-16T03:51:51.592Z,24.30
2023-04-16T03:54:20.146Z,22.20
2023-04-16T03:56:48.674Z,17.38
2023-04-16T03:59:15.814Z,32.13
2023-04-16T04:01:42.904Z,22.02
2023-04-16T04:04:10.270Z,31.60
2023-04-16T04:06:37.448Z,21.95
2023-04-16T04:09:04.653Z,20.63
2023-04-16T04:11:31.751Z,18.90
2023-04-16T04:13:58.895Z,17.95
2023-04-16T04:16:26.015Z,23.63
2023-04-16T04:18:53.157Z,22.90
2023-04-16T04:21:21.448Z,22.00
2023-04-16T04:23:48.811Z,25.88
2023-04-16T04:26:16.421Z,15.85
2023-04-16T04:28:43.568Z,27.50
2023-04-16T04:31:11.149Z,25.98
2023-04-16T04:33:38.248Z,26.83
2023-04-16T04:36:05.596Z,30.02
2023-04-16T04:38:32.749Z,22.63
2023-04-16T04:40:59.817Z,32.63
2023-04-16T04:43:26.997Z,23.70
2023-04-16T04:45:54.190Z,31.98
2023-04-16T04:48:26.196Z,28.90
2023-04-16T04:50:53.856Z,30.70
2023-04-16T04:53:21.553Z,27.13
2023-04-16T04:55:52.290Z,21.77
2023-04-16T04:58:21.490Z,30.35
2023-04-16T05:00:49.071Z,22.35
2023-04-16T05:03:20.459Z,20.95
2023-04-16T05:05:48.132Z,32.85
2023-04-16T05:08:15.270Z,21.98
2023-04-16T05:10:42.344Z,24.88
2023-04-16T05:13:09.402Z,22.40
2023-04-16T05:15:36.482Z,22.80
2023-04-16T05:18:03.690Z,23.55
2023-04-16T05:20:31.292Z,26.02
2023-04-16T05:22:58.312Z,16.77
2023-04-16T05:25:25.433Z,19.25
2023-04-16T05:27:52.556Z,30.17
2023-04-16T05:30:19.686Z,25.65
2023-04-16T05:32:46.865Z,23.60
2023-04-16T05:35:16.681Z,20.17
2023-04-16T05:37:44.644Z,21.55
2023-04-16T05:40:14.004Z,24.42
2023-04-16T05:42:41.126Z,22.60
2023-04-16T05:45:08.798Z,20.52
2023-04-16T05:47:35.998Z,21.92
2023-04-16T05:50:03.125Z,21.95
2023-04-16T05:52:30.276Z,18.20
2023-04-16T05:54:58.113Z,16.23
2023-04-16T05:57:25.293Z,23.48
2023-04-16T05:59:52.876Z,27.40
2023-04-16T06:02:20.226Z,15.57
2023-04-16T06:04:48.267Z,25.98
2023-04-16T06:07:15.522Z,21.48
2023-04-16T06:09:42.612Z,24.95
2023-04-16T06:12:09.755Z,24.15
2023-04-16T06:14:36.894Z,24.38
2023-04-16T06:17:04.007Z,26.60
2023-04-16T06:19:31.076Z,21.90
2023-04-16T06:21:58.192Z,23.88
2023-04-16T06:24:25.365Z,21.50
2023-04-16T06:26:52.829Z,23.67
2023-04-16T06:29:21.311Z,28.52
2023-04-16T06:31:49.979Z,28.52
2023-04-16T06:34:17.173Z,16.95
2023-04-16T06:36:44.393Z,29.35
2023-04-16T06:39:11.691Z,27.92
2023-04-16T06:41:39.059Z,26.67
2023-04-16T06:44:06.355Z,25.40
2023-04-16T06:46:33.680Z,33.15
2023-04-16T06:49:00.797Z,24.00
2023-04-16T06:51:28.180Z,22.88
2023-04-16T06:53:55.323Z,27.75
2023-04-16T06:56:22.623Z,23.35
2023-04-16T06:58:51.721Z,28.75
2023-04-16T07:01:22.731Z,28.55
2023-04-16T07:03:50.184Z,28.95
2023-04-16T07:06:18.263Z,33.55
2023-04-16T07:08:45.395Z,32.78
2023-04-16T07:11:12.525Z,26.40
2023-04-16T07:13:39.546Z,27.88
2023-04-16T07:16:07.212Z,31.90
2023-04-16T07:18:34.304Z,26.45
2023-04-16T07:21:01.534Z,26.08
2023-04-16T07:23:28.785Z,28.92
2023-04-16T07:25:56.566Z,24.88
2023-04-16T07:28:25.222Z,27.45
2023-04-16T07:30:52.667Z,27.92
2023-04-16T07:33:19.780Z,22.98
2023-04-16T07:35:49.805Z,27.35
2023-04-16T07:38:16.944Z,26.90
2023-04-16T07:40:44.149Z,24.92
2023-04-16T07:43:11.532Z,22.77
2023-04-16T07:45:39.608Z,20.25
2023-04-16T07:48:07.601Z,20.40
2023-04-16T07:50:34.941Z,24.10
2023-04-16T07:53:02.114Z,34.90
2023-04-16T07:55:29.258Z,26.65
2023-04-16T07:57:56.330Z,20.35
2023-04-16T08:00:23.474Z,28.25
2023-04-16T08:02:51.569Z,24.42
2023-04-16T08:05:19.399Z,18.67
2023-04-16T08:07:46.998Z,17.10
2023-04-16T08:10:14.150Z,19.05
2023-04-16T08:12:41.396Z,20.30
2023-04-16T08:15:09.027Z,22.42
2023-04-16T08:17:37.611Z,21.98
2023-04-16T08:20:06.358Z,20.13
2023-04-16T08:22:33.885Z,16.30
2023-04-16T08:25:01.084Z,17.40
2023-04-16T08:27:28.327Z,16.63
2023-04-16T08:29:55.524Z,17.05
2023-04-16T08:32:22.735Z,14.40
2023-04-16T08:34:49.872Z,14.00
2023-04-16T08:37:16.947Z,17.98
2023-04-16T08:39:44.070Z,12.20
2023-04-16T08:42:28.333Z,14.77
2023-04-16T08:45:06.269Z,15.15
2023-04-16T08:47:36.037Z,11.40
2023-04-16T08:50:06.939Z,14.57
2023-04-16T08:52:38.025Z,13.60
2023-04-16T08:55:11.931Z,10.77
2023-04-16T08:57:44.676Z,15.93
2023-04-16T09:00:13.444Z,11.88
2023-04-16T09:02:41.184Z,10.77
2023-04-16T09:05:10.642Z,10.18
2023-04-16T09:07:38.459Z,11.80
2023-04-16T09:10:08.279Z,10.30
2023-04-16T09:12:35.832Z,9.43
2023-04-16T09:15:03.861Z,11.65
2023-04-16T09:17:31.434Z,11.40
2023-04-16T09:19:58.585Z,13.40
2023-04-16T09:22:25.842Z,13.45
2023-04-16T09:24:53.001Z,10.32
2023-04-16T09:27:24.142Z,15.73
2023-04-16T09:29:52.861Z,9.45
2023-04-16T09:32:26.533Z,9.30
2023-04-16T09:37:31.920Z,10.38
2023-04-16T09:40:00.866Z,9.95
2023-04-16T09:42:31.000Z,14.25
2023-04-16T09:45:00.831Z,14.63
2023-04-16T09:47:41.471Z,12.13
2023-04-16T09:50:12.493Z,16.08
2023-04-16T09:52:40.115Z,17.60
2023-04-16T09:55:07.648Z,15.82
2023-04-16T09:57:37.918Z,16.35
2023-04-16T10:00:07.789Z,24.77
2023-04-16T10:02:35.800Z,19.65
2023-04-16T10:05:03.203Z,14.05
2023-04-16T10:07:34.600Z,14.25
2023-04-16T10:10:03.242Z,19.55
2023-04-16T10:12:32.701Z,21.75
2023-04-16T10:15:00.079Z,18.73
2023-04-16T10:17:30.027Z,20.48
2023-04-16T10:19:58.226Z,18.33
2023-04-16T10:22:26.362Z,24.52
2023-04-16T10:24:54.892Z,16.75
2023-04-16T10:27:23.130Z,22.55
2023-04-16T10:29:53.003Z,19.10
2023-04-16T10:32:22.802Z,21.00
2023-04-16T10:34:50.051Z,32.50
2023-04-16T10:37:19.245Z,18.25
2023-04-16T10:39:46.385Z,16.65
2023-04-16T10:42:13.561Z,18.85
2023-04-16T10:44:44.357Z,21.45
2023-04-16T10:47:13.913Z,18.17
2023-04-16T10:49:42.384Z,19.88
2023-04-16T10:52:09.427Z,18.67
2023-04-16T10:54:36.845Z,20.40
2023-04-16T10:57:06.429Z,26.60
2023-04-16T10:59:35.448Z,15.23
2023-04-16T11:02:28.498Z,16.35
2023-04-16T11:04:57.315Z,16.25
2023-04-16T11:07:35.155Z,22.05
2023-04-16T11:10:05.990Z,18.52
2023-04-16T11:12:34.414Z,15.57
2023-04-16T11:15:03.179Z,22.35
2023-04-16T11:17:39.404Z,16.13
2023-04-16T11:20:19.414Z,22.92
2023-04-16T11:22:49.968Z,18.38
2023-04-16T11:25:22.920Z,16.13
2023-04-16T11:27:51.782Z,25.20
2023-04-16T11:30:28.585Z,16.65
2023-04-16T11:32:56.172Z,19.75
2023-04-16T11:35:23.422Z,17.70
2023-04-16T11:37:55.464Z,21.95
2023-04-16T11:40:23.039Z,21.50
2023-04-16T11:42:50.226Z,20.50
2023-04-16T11:45:19.476Z,19.05
2023-04-16T11:47:53.339Z,24.20
2023-04-16T11:50:28.189Z,20.88
2023-04-16T11:52:57.812Z,18.70
2023-04-16T11:55:25.045Z,19.52
2023-04-16T11:57:52.868Z,27.02
2023-04-16T12:00:23.985Z,34.88
2023-04-16T12:02:54.530Z,19.52
2023-04-16T12:05:32.127Z,28.25
2023-04-16T12:08:00.925Z,21.33
2023-04-16T12:10:28.783Z,26.45
2023-04-16T12:13:19.661Z,21.83
2023-04-16T12:15:52.884Z,23.50
2023-04-16T12:18:22.965Z,25.75
2023-04-16T12:20:53.348Z,23.17
2023-04-16T12:23:23.544Z,26.55
2023-04-16T12:25:52.732Z,21.58
2023-04-16T12:28:34.194Z,22.42
2023-04-16T12:31:02.737Z,28.40
2023-04-16T12:33:30.323Z,25.40
2023-04-16T12:35:57.999Z,23.13
2023-04-16T12:38:26.268Z,28.38
2023-04-16T12:40:56.821Z,26.67
2023-04-16T12:43:25.161Z,26.25
2023-04-16T12:45:52.846Z,24.75
2023-04-16T12:48:19.971Z,20.75
2023-04-16T12:50:47.307Z,22.70
2023-04-16T12:53:14.509Z,24.90
2023-04-16T12:55:41.870Z,23.90
2023-04-16T12:58:10.562Z,24.27
2023-04-16T13:00:40.282Z,19.58
2023-04-16T13:03:07.802Z,27.20
2023-04-16T13:05:35.018Z,23.70
2023-04-16T13:08:02.614Z,25.70
2023-04-16T13:10:30.519Z,23.88
2023-04-16T13:12:57.664Z,25.08
2023-04-16T13:15:24.829Z,28.88
2023-04-16T13:17:52.587Z,23.45
2023-04-16T13:20:20.251Z,25.55
2023-04-16T13:22:48.418Z,22.08
2023-04-16T13:25:15.637Z,20.98
2023-04-16T13:27:42.786Z,23.58
2023-04-16T13:30:10.625Z,28.25
2023-04-16T13:32:38.038Z,19.17
2023-04-16T13:35:05.983Z,23.58
2023-04-16T13:37:33.129Z,23.95
2023-04-16T13:40:00.198Z,24.90
2023-04-16T13:42:28.407Z,17.98
2023-04-16T13:44:55.605Z,28.73
2023-04-16T13:47:22.905Z,20.83
2023-04-16T13:49:50.200Z,18.38
2023-04-16T13:52:17.312Z,22.80
2023-04-16T13:54:44.404Z,14.63
2023-04-16T13:57:12.582Z,17.73
2023-04-16T13:59:39.737Z,18.25
2023-04-16T14:02:07.752Z,19.35
2023-04-16T14:04:34.813Z,14.20
2023-04-16T14:07:02.020Z,18.25
2023-04-16T14:09:29.117Z,14.88
2023-04-16T14:11:56.187Z,21.10
2023-04-16T14:14:23.343Z,22.88
2023-04-16T14:16:51.596Z,16.77
2023-04-16T14:19:18.690Z,15.60
2023-04-16T14:21:45.989Z,17.35
2023-04-16T14:24:13.023Z,15.90
2023-04-16T14:26:40.162Z,19.85
2023-04-16T14:29:07.257Z,19.73
2023-04-16T14:31:34.366Z,17.70
2023-04-16T14:34:01.906Z,15.20
2023-04-16T14:36:31.127Z,14.63
2023-04-16T14:38:58.319Z,13.80
2023-04-16T14:41:25.581Z,22.77
2023-04-16T14:43:52.872Z,20.92
2023-04-16T14:46:20.090Z,15.40
2023-04-16T14:48:47.290Z,14.85
2023-04-16T14:51:14.487Z,21.08
2023-04-16T14:53:41.567Z,20.23
2023-04-16T14:56:08.646Z,19.88
2023-04-16T14:58:37.298Z,21.60
2023-04-16T15:01:06.291Z,21.25
2023-04-16T15:03:33.835Z,15.10
2023-04-16T15:06:01.144Z,16.83
2023-04-16T15:08:28.296Z,15.90
2023-04-16T15:10:55.478Z,23.50
2023-04-16T15:13:23.095Z,23.35
2023-04-16T15:15:50.312Z,22.92
2023-04-16T15:18:17.548Z,17.27
2023-04-16T15:20:44.754Z,18.83
2023-04-16T15:23:12.073Z,17.85
2023-04-16T15:25:39.507Z,18.98
2023-04-16T15:28:06.662Z,14.77
2023-04-16T15:30:33.927Z,23.17
2023-04-16T15:33:01.249Z,27.90
2023-04-16T15:35:28.521Z,21.25
2023-04-16T15:37:55.700Z,16.48
2023-04-16T15:40:24.285Z,18.27
2023-04-16T15:42:52.714Z,20.65
2023-04-16T15:45:20.340Z,20.50
2023-04-16T15:47:51.812Z,22.08
2023-04-16T15:50:20.190Z,23.92
2023-04-16T15:52:47.708Z,25.27
2023-04-16T15:55:16.695Z,30.90
2023-04-16T15:57:43.838Z,23.80
2023-04-16T16:00:17.106Z,24.10
2023-04-16T16:02:46.470Z,22.20
2023-04-16T16:05:14.814Z,22.92
2023-04-16T16:07:42.996Z,22.65
2023-04-16T16:10:11.364Z,25.33
2023-04-16T16:12:39.365Z,18.92
2023-04-16T16:15:07.237Z,21.65
2023-04-16T16:17:34.404Z,21.95
2023-04-16T16:20:01.742Z,21.77
2023-04-16T16:22:29.783Z,25.25
2023-04-16T16:24:57.990Z,26.60
2023-04-16T16:27:25.255Z,19.73
2023-04-16T16:29:53.284Z,24.23
2023-04-16T16:32:21.865Z,28.33
2023-04-16T16:34:48.981Z,19.00
2023-04-16T16:37:16.284Z,22.08
2023-04-16T16:39:43.410Z,20.95
2023-04-16T16:42:10.627Z,23.15
2023-04-16T16:44:37.855Z,22.08
2023-04-16T16:47:05.077Z,22.15
2023-04-16T16:49:32.255Z,17.20
2023-04-16T16:51:59.489Z,22.15
2023-04-16T16:54:26.546Z,23.42
2023-04-16T16:56:53.656Z,21.25
2023-04-16T16:59:21.912Z,28.63
2023-04-16T17:01:49.974Z,19.08
2023-04-16T17:04:20.060Z,19.95
2023-04-16T17:06:47.595Z,26.80
2023-04-16T17:09:14.716Z,16.67
2023-04-16T17:11:41.857Z,30.45
2023-04-16T17:14:11.778Z,27.90
2023-04-16T17:16:38.917Z,26.05
2023-04-16T17:19:06.113Z,24.27
2023-04-16T17:21:33.953Z,27.35
2023-04-16T17:24:01.098Z,26.00
2023-04-16T17:26:28.219Z,28.45
2023-04-16T17:28:57.477Z,25.40
2023-04-16T17:31:27.473Z,24.67
2023-04-16T17:33:54.721Z,20.83
2023-04-16T17:36:23.071Z,18.02
2023-04-16T17:38:52.137Z,25.98
2023-04-16T17:41:19.961Z,23.08
2023-04-16T17:43:50.077Z,20.90
2023-04-16T17:46:17.213Z,22.90
2023-04-16T17:48:44.315Z,18.17
2023-04-16T17:51:12.127Z,26.63
2023-04-16T17:53:39.245Z,20.45
2023-04-16T17:56:06.907Z,30.40
2023-04-16T17:58:35.315Z,23.80
2023-04-16T18:01:03.397Z,22.40
2023-04-16T18:03:32.318Z,21.48
2023-04-16T18:06:00.235Z,25.15
2023-04-16T18:08:27.770Z,29.30
2023-04-16T18:10:55.546Z,24.10
2023-04-16T18:13:24.283Z,23.08
2023-04-16T18:15:52.995Z,30.42
2023-04-16T18:18:21.882Z,30.80
2023-04-16T18:20:48.941Z,26.10
2023-04-16T18:23:16.008Z,30.77
2023-04-16T18:25:43.131Z,29.35
2023-04-16T18:28:13.298Z,30.15
2023-04-16T18:30:41.434Z,25.95
2023-04-16T18:33:34.209Z,30.02
2023-04-16T18:35:55.575Z,32.08
2023-04-16T18:38:23.135Z,37.65
2023-04-16T18:40:50.437Z,33.08
2023-04-16T18:43:17.593Z,35.13
2023-04-16T18:45:44.712Z,27.63
2023-04-16T18:48:11.738Z,28.65
2023-04-16T18:50:38.813Z,31.77
2023-04-16T18:53:06.055Z,34.58
2023-04-16T18:55:33.166Z,26.00
2023-04-16T18:58:00.286Z,31.95
2023-04-16T19:00:27.420Z,29.50
2023-04-16T19:02:54.711Z,25.90
2023-04-16T19:05:23.088Z,31.60
2023-04-16T19:07:50.384Z,27.33
2023-04-16T19:10:17.555Z,24.63
2023-04-16T19:12:44.566Z,31.75
2023-04-16T19:15:11.679Z,25.63
2023-04-16T19:17:39.849Z,25.63
2023-04-16T19:20:11.487Z,27.40
2023-04-16T19:22:38.786Z,25.05
2023-04-16T19:25:07.172Z,26.70
2023-04-16T19:27:34.753Z,26.63
2023-04-16T19:30:02.925Z,25.75
2023-04-16T19:32:30.026Z,30.75
2023-04-16T19:34:57.056Z,27.88
2023-04-16T19:37:24.068Z,23.65
2023-04-16T19:39:52.528Z,33.72
2023-04-16T19:42:20.486Z,30.27
2023-04-16T19:44:48.245Z,26.85
2023-04-16T19:47:15.396Z,26.77
2023-04-16T19:49:43.611Z,29.88
2023-04-16T19:52:10.669Z,29.73
2023-04-16T19:54:37.801Z,26.65
2023-04-16T19:57:04.812Z,30.80
2023-04-16T19:59:32.289Z,24.05
2023-04-16T20:01:59.580Z,29.08
2023-04-16T20:04:26.780Z,23.10
2023-04-16T20:06:53.917Z,30.83
2023-04-16T20:09:22.100Z,33.10
2023-04-16T20:11:49.538Z,41.08
2023-04-16T20:14:17.219Z,35.20
2023-04-16T20:16:44.284Z,27.52
2023-04-16T20:19:18.307Z,29.42
2023-04-16T20:21:45.788Z,31.65
2023-04-16T20:24:15.430Z,29.25
2023-04-16T20:26:42.794Z,28.45
2023-04-16T20:29:10.270Z,27.50
2023-04-16T20:31:37.548Z,30.58
2023-04-16T20:34:04.636Z,31.02
2023-04-16T20:36:31.881Z,25.58
2023-04-16T20:38:59.847Z,34.20
2023-04-16T20:41:27.393Z,28.77
2023-04-16T20:43:54.478Z,29.10
2023-04-16T20:46:24.350Z,30.83
2023-04-16T20:48:52.716Z,28.10
2023-04-16T20:51:20.161Z,30.23
2023-04-16T20:53:47.278Z,35.15
2023-04-16T20:56:17.389Z,27.70
2023-04-16T20:58:44.522Z,40.53
2023-04-16T21:01:11.975Z,33.42
2023-04-16T21:03:39.324Z,30.88
2023-04-16T21:06:06.461Z,32.35
2023-04-16T21:08:33.579Z,32.83
2023-04-16T21:11:00.976Z,29.35
2023-04-16T21:13:28.042Z,28.92
2023-04-16T21:15:55.327Z,28.20
2023-04-16T21:18:22.701Z,29.05
2023-04-16T21:20:50.052Z,25.75
2023-04-16T21:23:17.174Z,26.10
2023-04-16T21:25:44.268Z,29.58
2023-04-16T21:28:11.368Z,36.22
2023-04-16T21:30:38.840Z,35.45
2023-04-16T21:33:06.575Z,35.33
2023-04-16T21:35:34.070Z,31.55
2023-04-16T21:38:01.534Z,28.92
2023-04-16T21:40:28.683Z,36.50
2023-04-16T21:42:56.052Z,27.80
2023-04-16T21:45:23.234Z,28.98
2023-04-16T21:47:51.742Z,28.27
2023-04-16T21:50:18.952Z,36.85
2023-04-16T21:52:46.769Z,30.50
2023-04-16T21:55:14.786Z,38.75
2023-04-16T21:57:41.845Z,30.85
2023-04-16T22:00:13.826Z,40.05
2023-04-16T22:02:44.525Z,34.38
2023-04-16T22:05:12.057Z,30.35
2023-04-16T22:07:39.142Z,35.47
2023-04-16T22:10:08.666Z,28.50
2023-04-16T22:12:39.948Z,36.30
2023-04-16T22:15:08.090Z,25.40
2023-04-16T22:17:35.329Z,34.80
2023-04-16T22:20:06.921Z,28.38
2023-04-16T22:22:34.236Z,29.02
2023-04-16T22:25:01.889Z,35.63
2023-04-16T22:27:29.026Z,33.83
2023-04-16T22:29:56.119Z,34.22
2023-04-16T22:32:23.317Z,38.38
2023-04-16T22:34:51.536Z,30.63
2023-04-16T22:37:18.689Z,33.45
2023-04-16T22:39:45.910Z,36.80
2023-04-16T22:42:12.924Z,36.65
2023-04-16T22:44:40.024Z,39.55
2023-04-16T22:47:07.118Z,40.28
2023-04-16T22:49:34.174Z,30.58
2023-04-16T22:52:01.985Z,36.30
2023-04-16T22:54:30.095Z,32.05
2023-04-16T22:56:57.737Z,32.10
2023-04-16T22:59:25.228Z,33.50
2023-04-16T23:01:53.042Z,36.75
2023-04-16T23:04:20.327Z,31.05
2023-04-16T23:06:47.956Z,37.83
2023-04-16T23:09:15.062Z,36.00
2023-04-16T23:11:42.211Z,42.85
2023-04-16T23:14:09.827Z,38.60
2023-04-16T23:16:36.949Z,39.65
2023-04-16T23:19:03.994Z,35.90
2023-04-16T23:21:31.361Z,34.85
2023-04-16T23:23:59.198Z,31.80
2023-04-16T23:26:26.368Z,31.45
2023-04-16T23:28:53.399Z,35.17
2023-04-16T23:31:21.534Z,37.88
2023-04-16T23:33:48.665Z,39.33
2023-04-16T23:36:15.787Z,34.10
2023-04-16T23:38:42.868Z,35.30
2023-04-16T23:41:09.957Z,34.33
2023-04-16T23:43:39.990Z,40.83
2023-04-16T23:46:07.565Z,34.92
2023-04-16T23:48:34.668Z,32.72
2023-04-16T23:51:01.758Z,34.28
2023-04-16T23:53:28.757Z,32.72
2023-04-16T23:55:55.831Z,35.00
2023-04-16T23:58:22.989Z,37.20
